createdAt,value
2019-06-20T00:02:29.656Z,7.07
2019-06-20T00:05:00.504Z,7.67
2019-06-20T00:07:35.857Z,6.97
2019-06-20T00:10:05.944Z,6.97
2019-06-20T00:12:59.793Z,7.20
2019-06-20T00:15:22.864Z,6.17
2019-06-20T00:18:13.431Z,7.00
2019-06-20T00:20:45.187Z,6.50
2019-06-20T00:23:16.767Z,6.10
2019-06-20T00:25:52.303Z,6.47
2019-06-20T00:28:22.135Z,7.37
2019-06-20T00:30:51.812Z,8.03
2019-06-20T00:33:21.623Z,8.13
2019-06-20T00:35:51.395Z,7.30
2019-06-20T00:38:21.217Z,10.00
2019-06-20T00:40:52.118Z,8.57
2019-06-20T00:43:27.904Z,7.50
2019-06-20T00:45:57.726Z,7.17
2019-06-20T00:48:33.703Z,7.23
2019-06-20T00:51:04.569Z,6.33
2019-06-20T00:53:40.467Z,5.87
2019-06-20T00:56:10.704Z,18.47
2019-06-20T00:58:44.102Z,8.40
2019-06-20T01:01:17.167Z,7.43
2019-06-20T01:03:49.175Z,8.00
2019-06-20T01:06:20.097Z,7.70
2019-06-20T01:08:50.923Z,8.03
2019-06-20T01:11:29.741Z,7.97
2019-06-20T01:14:06.451Z,6.77
2019-06-20T01:16:36.221Z,7.13
2019-06-20T01:19:07.035Z,6.50
2019-06-20T01:21:42.906Z,7.53
2019-06-20T01:24:28.981Z,6.90
2019-06-20T01:26:58.859Z,7.47
2019-06-20T01:29:28.636Z,6.93
2019-06-20T01:31:59.400Z,7.10
2019-06-20T01:34:29.201Z,7.73
2019-06-20T01:37:04.884Z,8.40
2019-06-20T01:39:36.597Z,7.77
2019-06-20T01:42:06.287Z,7.40
2019-06-20T01:44:37.144Z,6.13
2019-06-20T01:47:08.820Z,7.20
2019-06-20T01:49:44.403Z,7.53
2019-06-20T01:52:19.939Z,9.07
2019-06-20T01:54:52.769Z,7.93
2019-06-20T01:57:22.524Z,8.50
2019-06-20T01:59:52.313Z,6.60
2019-06-20T02:02:22.149Z,6.93
2019-06-20T02:05:06.550Z,6.20
2019-06-20T02:07:40.306Z,7.40
2019-06-20T02:10:12.333Z,7.20
2019-06-20T02:12:42.064Z,5.77
2019-06-20T02:15:18.070Z,6.60
2019-06-20T02:17:47.898Z,6.70
2019-06-20T02:20:45.960Z,6.30
2019-06-20T02:23:15.736Z,6.67
2019-06-20T02:25:47.195Z,6.67
2019-06-20T02:28:17.136Z,8.90
2019-06-20T02:30:47.057Z,6.30
2019-06-20T02:33:16.954Z,5.77
2019-06-20T02:35:50.077Z,5.97
2019-06-20T02:38:20.000Z,5.40
2019-06-20T02:40:49.785Z,6.37
2019-06-20T02:43:19.643Z,4.97
2019-06-20T02:45:58.391Z,5.43
2019-06-20T02:48:28.195Z,5.27
2019-06-20T02:50:59.049Z,4.70
2019-06-20T02:53:28.911Z,4.83
2019-06-20T02:56:00.020Z,5.53
2019-06-20T02:58:29.792Z,4.73
2019-06-20T03:01:01.583Z,4.60
2019-06-20T03:03:35.853Z,3.93
2019-06-20T03:06:07.931Z,4.87
2019-06-20T03:08:37.795Z,4.93
2019-06-20T03:11:07.576Z,4.17
2019-06-20T03:13:37.246Z,4.70
2019-06-20T03:16:12.904Z,4.97
2019-06-20T03:18:45.620Z,5.00
2019-06-20T03:21:17.312Z,4.77
2019-06-20T03:23:53.962Z,4.60
2019-06-20T03:26:23.714Z,4.67
2019-06-20T03:28:54.481Z,4.50
2019-06-20T03:31:24.256Z,4.50
2019-06-20T03:33:54.117Z,5.10
2019-06-20T03:36:24.895Z,4.33
2019-06-20T03:38:56.588Z,4.20
2019-06-20T03:41:26.311Z,4.50
2019-06-20T03:44:00.101Z,5.50
2019-06-20T03:46:31.842Z,5.60
2019-06-20T03:49:11.123Z,5.73
2019-06-20T03:51:40.893Z,5.73
2019-06-20T03:54:10.573Z,5.50
2019-06-20T03:56:43.361Z,5.80
2019-06-20T03:59:15.053Z,5.77
2019-06-20T04:01:56.928Z,6.40
2019-06-20T04:04:26.679Z,6.20
2019-06-20T04:06:56.476Z,7.03
2019-06-20T04:09:26.200Z,6.50
2019-06-20T04:11:55.867Z,6.87
2019-06-20T04:14:35.597Z,6.80
2019-06-20T04:17:11.293Z,6.80
2019-06-20T04:19:41.127Z,6.50
2019-06-20T04:22:16.921Z,6.97
2019-06-20T04:24:50.148Z,6.83
2019-06-20T04:27:21.459Z,6.83
2019-06-20T04:29:51.225Z,7.00
2019-06-20T04:32:35.933Z,7.60
2019-06-20T04:35:07.113Z,7.00
2019-06-20T04:37:36.804Z,6.63
2019-06-20T04:40:07.696Z,6.30
2019-06-20T04:42:43.816Z,6.60
2019-06-20T04:45:34.650Z,7.10
2019-06-20T04:47:57.992Z,7.30
2019-06-20T04:50:31.297Z,7.37
2019-06-20T04:53:01.174Z,7.10
2019-06-20T04:55:30.980Z,7.17
2019-06-20T04:58:01.803Z,7.07
2019-06-20T05:00:31.638Z,7.73
2019-06-20T05:03:05.357Z,7.37
2019-06-20T05:05:38.757Z,8.00
2019-06-20T05:08:18.039Z,6.90
2019-06-20T05:10:47.794Z,6.97
2019-06-20T05:13:21.095Z,7.20
2019-06-20T05:15:56.553Z,7.70
2019-06-20T05:18:28.060Z,7.30
2019-06-20T05:20:59.845Z,7.00
2019-06-20T05:23:30.601Z,23.00
2019-06-20T05:26:00.384Z,7.80
2019-06-20T05:28:36.775Z,7.43
2019-06-20T05:31:09.365Z,7.00
2019-06-20T05:33:39.808Z,8.23
2019-06-20T05:36:10.578Z,8.10
2019-06-20T05:38:41.263Z,8.80
2019-06-20T05:41:11.039Z,9.17
2019-06-20T05:43:53.074Z,7.87
2019-06-20T05:46:22.843Z,7.73
2019-06-20T05:48:54.621Z,7.40
2019-06-20T05:51:31.267Z,7.27
2019-06-20T05:54:00.944Z,7.30
2019-06-20T05:56:30.617Z,7.00
2019-06-20T05:59:01.368Z,7.00
2019-06-20T06:01:31.136Z,6.80
2019-06-20T06:04:00.965Z,6.97
2019-06-20T06:06:37.624Z,7.10
2019-06-20T06:09:07.487Z,6.97
2019-06-20T06:11:38.165Z,6.50
2019-06-20T06:14:07.965Z,5.97
2019-06-20T06:16:37.700Z,6.97
2019-06-20T06:19:07.435Z,6.80
2019-06-20T06:21:37.292Z,7.40
2019-06-20T06:24:07.183Z,6.30
2019-06-20T06:26:38.011Z,7.10
2019-06-20T06:29:07.826Z,6.90
2019-06-20T06:31:37.580Z,7.10
2019-06-20T06:34:21.953Z,7.30
2019-06-20T06:36:50.732Z,6.50
2019-06-20T06:39:20.444Z,7.00
2019-06-20T06:41:50.192Z,7.27
2019-06-20T06:44:19.969Z,7.03
2019-06-20T06:46:55.573Z,5.93
2019-06-20T06:49:22.303Z,6.97
2019-06-20T06:51:52.071Z,6.50
2019-06-20T06:54:21.815Z,6.30
2019-06-20T06:56:51.619Z,6.10
2019-06-20T06:59:23.479Z,6.30
2019-06-20T07:01:53.326Z,5.57
2019-06-20T07:04:26.717Z,5.90
2019-06-20T07:06:57.804Z,6.10
2019-06-20T07:09:27.598Z,6.20
2019-06-20T07:11:57.340Z,8.17
2019-06-20T07:14:27.118Z,7.37
2019-06-20T07:17:00.560Z,8.43
2019-06-20T07:19:29.324Z,8.40
2019-06-20T07:22:00.128Z,8.50
2019-06-20T07:24:29.955Z,9.30
2019-06-20T07:26:59.775Z,8.43
2019-06-20T07:29:29.562Z,8.70
2019-06-20T07:31:59.244Z,9.40
2019-06-20T07:34:28.935Z,9.87
2019-06-20T07:36:58.629Z,8.77
2019-06-20T07:39:28.343Z,8.53
2019-06-20T07:41:58.061Z,8.20
2019-06-20T07:44:27.772Z,7.50
2019-06-20T07:46:58.602Z,7.47
2019-06-20T07:49:28.316Z,8.23
2019-06-20T07:51:59.073Z,7.93
2019-06-20T07:54:28.785Z,8.70
2019-06-20T07:56:58.487Z,7.97
2019-06-20T07:59:28.248Z,7.77
2019-06-20T08:01:58.074Z,8.70
2019-06-20T08:04:29.944Z,7.77
2019-06-20T08:07:00.783Z,7.40
2019-06-20T08:09:44.447Z,7.97
2019-06-20T08:12:01.968Z,7.30
2019-06-20T08:14:31.761Z,7.50
2019-06-20T08:17:03.527Z,7.73
2019-06-20T08:19:42.117Z,7.77
2019-06-20T08:22:12.895Z,7.40
2019-06-20T08:24:42.586Z,7.73
2019-06-20T08:27:14.913Z,8.00
2019-06-20T08:29:46.883Z,7.67
2019-06-20T08:32:17.689Z,7.57
2019-06-20T08:34:47.470Z,7.73
2019-06-20T08:37:22.553Z,7.70
2019-06-20T08:39:56.762Z,8.10
2019-06-20T08:42:28.203Z,7.90
2019-06-20T08:45:03.933Z,7.73
2019-06-20T08:47:37.440Z,7.73
2019-06-20T08:50:08.159Z,8.07
2019-06-20T08:52:41.621Z,8.10
2019-06-20T08:55:11.671Z,6.60
2019-06-20T08:57:41.797Z,7.20
2019-06-20T09:00:13.883Z,7.23
2019-06-20T09:02:43.853Z,6.33
2019-06-20T09:05:14.657Z,6.47
2019-06-20T09:07:57.201Z,6.27
2019-06-20T09:10:37.027Z,6.77
2019-06-20T09:13:08.187Z,6.70
2019-06-20T09:15:45.820Z,6.90
2019-06-20T09:18:15.623Z,7.40
2019-06-20T09:20:47.474Z,7.33
2019-06-20T09:23:17.193Z,7.13
2019-06-20T09:25:46.936Z,7.57
2019-06-20T09:28:16.785Z,8.00
2019-06-20T09:30:51.891Z,6.80
2019-06-20T09:33:24.169Z,6.47
2019-06-20T09:35:55.496Z,6.20
2019-06-20T09:38:50.614Z,5.70
2019-06-20T09:41:27.349Z,5.30
2019-06-20T09:43:58.656Z,6.10
2019-06-20T09:46:28.763Z,6.30
2019-06-20T09:48:58.788Z,4.80
2019-06-20T09:51:30.036Z,5.97
2019-06-20T09:54:01.860Z,6.50
2019-06-20T09:56:34.772Z,6.67
2019-06-20T09:59:04.623Z,6.43
2019-06-20T10:01:41.047Z,4.63
2019-06-20T10:04:11.416Z,5.53
2019-06-20T10:06:41.411Z,5.47
2019-06-20T10:09:38.339Z,6.10
2019-06-20T10:12:08.839Z,6.23
2019-06-20T10:14:38.626Z,5.00
2019-06-20T10:17:14.339Z,5.70
2019-06-20T10:20:08.207Z,4.37
2019-06-20T10:22:41.007Z,5.03
2019-06-20T10:25:13.953Z,5.13
2019-06-20T10:27:53.798Z,5.30
2019-06-20T10:30:25.571Z,4.77
2019-06-20T10:32:58.547Z,4.83
2019-06-20T10:35:28.301Z,5.37
2019-06-20T10:38:03.829Z,5.20
2019-06-20T10:40:46.347Z,6.00
2019-06-20T10:43:16.731Z,5.57
2019-06-20T10:45:52.646Z,5.27
2019-06-20T10:48:32.510Z,6.10
2019-06-20T10:51:49.639Z,4.37
2019-06-20T10:54:19.477Z,4.87
2019-06-20T10:56:49.367Z,5.60
2019-06-20T10:59:19.198Z,5.17
2019-06-20T11:01:50.681Z,5.20
2019-06-20T11:04:20.596Z,5.10
2019-06-20T11:06:50.269Z,5.90
2019-06-20T11:09:19.995Z,4.93
2019-06-20T11:11:49.687Z,6.00
2019-06-20T11:14:19.368Z,5.30
2019-06-20T11:16:49.383Z,4.50
2019-06-20T11:19:21.252Z,4.87
2019-06-20T11:21:51.112Z,4.53
2019-06-20T11:24:20.828Z,4.40
2019-06-20T11:26:50.583Z,4.10
2019-06-20T11:29:20.412Z,4.43
2019-06-20T11:31:50.083Z,4.63
2019-06-20T11:34:19.916Z,4.73
2019-06-20T11:36:49.592Z,3.87
2019-06-20T11:39:19.462Z,4.50
2019-06-20T11:41:49.388Z,4.30
2019-06-20T11:44:20.189Z,4.27
2019-06-20T11:46:49.893Z,4.17
2019-06-20T11:49:19.572Z,4.53
2019-06-20T11:51:49.256Z,3.93
2019-06-20T11:54:19.131Z,4.90
2019-06-20T11:56:48.796Z,4.60
2019-06-20T11:59:18.481Z,4.13
2019-06-20T12:01:49.065Z,4.30
2019-06-20T12:04:19.868Z,3.93
2019-06-20T12:06:49.543Z,3.47
2019-06-20T12:09:19.306Z,3.20
2019-06-20T12:11:49.044Z,3.63
2019-06-20T12:14:19.959Z,3.90
2019-06-20T12:16:49.644Z,3.67
2019-06-20T12:19:19.408Z,4.00
2019-06-20T12:21:49.237Z,4.43
2019-06-20T12:24:20.136Z,4.27
2019-06-20T12:26:49.804Z,4.47
2019-06-20T12:29:19.520Z,4.90
2019-06-20T12:31:49.267Z,4.10
2019-06-20T12:34:19.392Z,4.10
2019-06-20T12:36:49.075Z,4.73
2019-06-20T12:39:18.774Z,4.57
2019-06-20T12:41:50.089Z,4.87
2019-06-20T12:44:20.666Z,4.53
2019-06-20T12:46:50.589Z,4.90
2019-06-20T12:49:23.727Z,4.93
2019-06-20T12:51:51.769Z,4.80
2019-06-20T12:54:21.527Z,5.03
2019-06-20T12:56:51.331Z,4.20
2019-06-20T12:59:21.054Z,5.00
2019-06-20T13:01:56.667Z,4.67
2019-06-20T13:04:26.493Z,4.30
2019-06-20T13:06:56.239Z,4.90
2019-06-20T13:09:25.933Z,5.60
2019-06-20T13:11:55.675Z,5.20
2019-06-20T13:14:26.530Z,5.50
2019-06-20T13:16:56.350Z,5.33
2019-06-20T13:19:26.103Z,5.57
2019-06-20T13:21:55.788Z,5.47
2019-06-20T13:24:25.536Z,6.10
2019-06-20T13:27:01.361Z,5.70
2019-06-20T13:29:31.109Z,5.00
2019-06-20T13:32:04.253Z,5.20
2019-06-20T13:34:33.476Z,5.30
2019-06-20T13:37:10.951Z,4.60
2019-06-20T13:39:47.499Z,5.23
2019-06-20T13:42:17.300Z,5.20
2019-06-20T13:44:57.098Z,4.83
2019-06-20T13:47:33.069Z,4.57
2019-06-20T13:50:08.936Z,4.90
2019-06-20T13:52:42.818Z,4.63
2019-06-20T13:55:15.168Z,4.77
2019-06-20T13:57:47.123Z,4.70
2019-06-20T14:00:23.420Z,5.73
2019-06-20T14:02:53.325Z,4.80
2019-06-20T14:05:26.575Z,5.40
2019-06-20T14:07:56.449Z,5.33
2019-06-20T14:10:27.191Z,5.50
2019-06-20T14:12:56.978Z,5.00
2019-06-20T14:15:26.783Z,5.50
2019-06-20T14:17:57.609Z,5.13
2019-06-20T14:20:29.459Z,5.30
2019-06-20T14:22:59.205Z,5.23
2019-06-20T14:25:34.259Z,5.83
2019-06-20T14:28:07.284Z,5.60
2019-06-20T14:30:59.825Z,5.40
2019-06-20T14:33:35.228Z,5.50
2019-06-20T14:36:06.041Z,5.70
2019-06-20T14:38:37.826Z,5.70
2019-06-20T14:41:08.765Z,5.10
2019-06-20T14:43:44.725Z,5.40
2019-06-20T14:46:16.295Z,5.83
2019-06-20T14:48:48.451Z,5.90
2019-06-20T14:51:18.251Z,5.80
2019-06-20T14:53:52.627Z,5.90
2019-06-20T14:56:22.481Z,5.80
2019-06-20T14:58:55.445Z,5.37
2019-06-20T15:01:25.370Z,5.13
2019-06-20T15:03:56.030Z,5.10
2019-06-20T15:06:25.936Z,5.13
2019-06-20T15:09:03.475Z,4.97
2019-06-20T15:11:28.156Z,5.73
2019-06-20T15:13:59.045Z,5.70
2019-06-20T15:16:28.870Z,5.20
2019-06-20T15:19:04.571Z,5.03
2019-06-20T15:21:35.448Z,5.40
2019-06-20T15:24:11.068Z,6.10
2019-06-20T15:26:41.841Z,5.40
2019-06-20T15:29:11.520Z,5.60
2019-06-20T15:31:43.765Z,4.80
2019-06-20T15:34:12.704Z,5.10
2019-06-20T15:36:42.533Z,5.30
2019-06-20T15:39:15.379Z,5.10
2019-06-20T15:41:49.957Z,5.67
2019-06-20T15:44:19.827Z,5.03
2019-06-20T15:46:50.051Z,5.60
2019-06-20T15:49:21.065Z,5.60
2019-06-20T15:51:51.864Z,6.90
2019-06-20T15:54:24.495Z,6.30
2019-06-20T15:56:54.101Z,6.40
2019-06-20T15:59:23.785Z,6.77
2019-06-20T16:01:53.455Z,7.03
2019-06-20T16:04:23.128Z,6.40
2019-06-20T16:06:56.700Z,6.63
2019-06-20T16:09:26.379Z,6.97
2019-06-20T16:11:56.076Z,6.67
2019-06-20T16:14:25.961Z,6.87
2019-06-20T16:16:58.941Z,6.33
2019-06-20T16:19:28.779Z,6.77
2019-06-20T16:21:59.636Z,6.87
2019-06-20T16:24:30.370Z,6.60
2019-06-20T16:27:15.326Z,6.90
2019-06-20T16:29:45.031Z,6.30
2019-06-20T16:32:14.786Z,6.50
2019-06-20T16:34:44.524Z,5.80
2019-06-20T16:37:14.195Z,6.17
2019-06-20T16:39:44.876Z,6.27
2019-06-20T16:42:14.563Z,6.00
2019-06-20T16:44:44.237Z,6.40
2019-06-20T16:47:13.984Z,6.40
2019-06-20T16:49:43.709Z,6.17
2019-06-20T16:52:13.484Z,6.00
2019-06-20T16:54:43.307Z,6.80
2019-06-20T16:57:13.137Z,6.43
2019-06-20T16:59:48.721Z,6.80
2019-06-20T17:02:18.409Z,6.07
2019-06-20T17:04:48.090Z,7.63
2019-06-20T17:07:18.601Z,6.80
2019-06-20T17:09:48.475Z,6.80
2019-06-20T17:12:18.326Z,6.33
2019-06-20T17:14:48.094Z,6.83
2019-06-20T17:17:17.785Z,6.70
2019-06-20T17:19:47.452Z,6.20
2019-06-20T17:22:17.212Z,6.70
2019-06-20T17:24:46.870Z,6.77
2019-06-20T17:27:16.645Z,6.80
2019-06-20T17:29:46.375Z,6.83
2019-06-20T17:32:17.232Z,6.63
2019-06-20T17:34:47.933Z,7.17
2019-06-20T17:37:17.766Z,7.20
2019-06-20T17:39:47.477Z,7.23
2019-06-20T17:42:20.886Z,6.80
2019-06-20T17:44:50.617Z,6.60
2019-06-20T17:47:21.443Z,9.97
2019-06-20T17:49:51.241Z,10.57
2019-06-20T17:52:22.061Z,9.87
2019-06-20T17:54:56.782Z,11.10
2019-06-20T17:57:31.956Z,12.03
2019-06-20T18:00:07.152Z,12.17
2019-06-20T18:02:38.153Z,12.93
2019-06-20T18:05:17.431Z,12.60
2019-06-20T18:07:54.265Z,12.60
2019-06-20T18:10:33.114Z,13.00
2019-06-20T18:13:22.188Z,12.53
2019-06-20T18:15:53.041Z,13.67
2019-06-20T18:18:23.896Z,13.60
2019-06-20T18:21:03.454Z,12.63
2019-06-20T18:23:34.020Z,12.87
2019-06-20T18:26:04.932Z,13.47
2019-06-20T18:28:35.745Z,13.67
2019-06-20T18:31:05.556Z,14.90
2019-06-20T18:33:42.539Z,14.30
2019-06-20T18:36:15.915Z,16.27
2019-06-20T18:38:45.664Z,13.27
2019-06-20T18:41:15.443Z,15.10
2019-06-20T18:43:45.166Z,15.87
2019-06-20T18:46:15.904Z,15.77
2019-06-20T18:48:50.028Z,13.50
2019-06-20T18:51:19.862Z,11.10
2019-06-20T18:53:50.670Z,10.73
2019-06-20T18:56:20.568Z,10.23
2019-06-20T18:58:56.342Z,10.80
2019-06-20T19:01:26.241Z,10.20
2019-06-20T19:03:56.043Z,7.60
2019-06-20T19:06:36.026Z,7.70
2019-06-20T19:08:58.367Z,7.33
2019-06-20T19:11:28.049Z,7.70
2019-06-20T19:13:57.753Z,6.60
2019-06-20T19:16:27.579Z,6.20
2019-06-20T19:18:58.399Z,5.90
2019-06-20T19:21:28.224Z,6.00
2019-06-20T19:23:58.259Z,5.60
2019-06-20T19:26:28.109Z,5.90
2019-06-20T19:28:57.856Z,6.47
2019-06-20T19:31:27.548Z,6.67
2019-06-20T19:33:57.285Z,5.73
2019-06-20T19:36:27.145Z,7.17
2019-06-20T19:38:56.912Z,6.60
2019-06-20T19:41:26.693Z,6.60
2019-06-20T19:43:57.455Z,7.20
2019-06-20T19:46:28.165Z,6.50
2019-06-20T19:48:57.976Z,6.80
2019-06-20T19:51:27.697Z,7.00
2019-06-20T19:53:57.607Z,8.17
2019-06-20T19:56:28.620Z,6.23
2019-06-20T19:58:58.388Z,6.10
2019-06-20T20:01:28.063Z,6.13
2019-06-20T20:03:57.859Z,6.80
2019-06-20T20:06:27.751Z,6.40
2019-06-20T20:08:58.525Z,6.53
2019-06-20T20:11:29.445Z,6.90
2019-06-20T20:13:59.245Z,7.33
2019-06-20T20:16:31.031Z,7.10
2019-06-20T20:19:00.808Z,6.97
2019-06-20T20:21:30.554Z,8.17
2019-06-20T20:24:01.306Z,7.80
2019-06-20T20:26:31.159Z,7.63
2019-06-20T20:29:00.895Z,8.23
2019-06-20T20:31:30.660Z,9.30
2019-06-20T20:34:00.339Z,8.03
2019-06-20T20:36:31.163Z,9.00
2019-06-20T20:39:01.921Z,9.27
2019-06-20T20:41:33.400Z,9.10
2019-06-20T20:44:03.056Z,8.87
2019-06-20T20:46:32.825Z,8.57
2019-06-20T20:49:02.605Z,10.47
2019-06-20T20:51:32.649Z,9.73
2019-06-20T20:54:02.440Z,9.57
2019-06-20T20:56:32.276Z,9.80
2019-06-20T20:59:02.120Z,9.27
2019-06-20T21:01:35.183Z,9.20
2019-06-20T21:04:03.319Z,9.90
2019-06-20T21:06:33.068Z,10.97
2019-06-20T21:09:03.056Z,10.70
2019-06-20T21:11:34.620Z,10.57
2019-06-20T21:14:04.670Z,11.60
2019-06-20T21:16:34.478Z,10.90
2019-06-20T21:19:04.395Z,11.00
2019-06-20T21:21:34.196Z,22.37
2019-06-20T21:24:04.106Z,12.67
2019-06-20T21:26:48.296Z,9.47
2019-06-20T21:29:05.620Z,13.20
2019-06-20T21:31:35.460Z,11.10
2019-06-20T21:34:05.273Z,11.63
2019-06-20T21:36:35.048Z,14.00
2019-06-20T21:39:07.260Z,10.60
2019-06-20T21:41:37.054Z,10.43
2019-06-20T21:44:06.901Z,10.80
2019-06-20T21:46:36.608Z,14.00
2019-06-20T21:49:06.435Z,15.70
2019-06-20T21:51:36.197Z,19.10
2019-06-20T21:54:06.040Z,17.00
2019-06-20T21:56:35.793Z,14.37
2019-06-20T21:59:05.548Z,13.33
2019-06-20T22:01:35.649Z,14.57
2019-06-20T22:04:05.495Z,15.90
2019-06-20T22:06:35.236Z,13.43
2019-06-20T22:09:08.432Z,13.77
2019-06-20T22:11:39.523Z,13.17
2019-06-20T22:14:09.215Z,15.37
2019-06-20T22:16:39.015Z,17.43
2019-06-20T22:19:08.765Z,18.40
2019-06-20T22:21:39.664Z,17.63
2019-06-20T22:24:09.404Z,17.97
2019-06-20T22:26:39.168Z,17.23
2019-06-20T22:29:08.910Z,18.07
2019-06-20T22:31:38.580Z,18.07
2019-06-20T22:34:08.318Z,21.10
2019-06-20T22:36:40.512Z,21.70
2019-06-20T22:39:09.740Z,17.70
2019-06-20T22:41:39.673Z,17.07
2019-06-20T22:44:09.317Z,16.40
2019-06-20T22:46:38.983Z,16.57
2019-06-20T22:49:08.640Z,20.33
2019-06-20T22:51:38.305Z,22.60
2019-06-20T22:54:07.956Z,23.60
2019-06-20T22:56:37.622Z,26.87
2019-06-20T22:59:07.264Z,27.30
2019-06-20T23:01:37.002Z,26.50
2019-06-20T23:04:06.734Z,25.90
2019-06-20T23:06:36.540Z,26.60
2019-06-20T23:09:07.591Z,27.63
2019-06-20T23:11:37.268Z,24.70
2019-06-20T23:14:06.999Z,26.17
2019-06-20T23:16:36.661Z,28.33
2019-06-20T23:19:06.316Z,29.67
2019-06-20T23:21:36.066Z,29.60
2019-06-20T23:24:05.884Z,33.60
2019-06-20T23:26:35.647Z,32.80
2019-06-20T23:29:23.893Z,31.70
2019-06-20T23:31:54.775Z,30.90
2019-06-20T23:34:24.594Z,31.50
2019-06-20T23:36:54.260Z,31.40
2019-06-20T23:39:23.929Z,32.33
2019-06-20T23:41:53.588Z,31.20
2019-06-20T23:44:23.235Z,32.63
2019-06-20T23:46:52.904Z,30.77
2019-06-20T23:49:22.548Z,30.20
2019-06-20T23:52:00.117Z,29.10
2019-06-20T23:54:29.766Z,30.60
2019-06-20T23:56:59.528Z,28.00
2019-06-20T23:59:29.201Z,27.83
